Time;durP1;ratioP1;P1;durP2;ratioP2;P2;SDS_P1;SDS_P2;PMS_P1;PMS_P2;Temp;Humidity;BMP_temperature;BMP_pressure;BME280_temperature;BME280_humidity;BME280_pressure;Samples;Min_cycle;Max_cycle;Signal;HPM_P1;HPM_P2
2023/02/27 00:01:50;;;;;;;1.70;1.50;;;;;;;-2.45;88.22;98596.06;5031436;28;20219;-88
2023/02/27 00:04:17;;;;;;;1.60;1.50;;;;;;;-2.44;88.58;98588.25;5032034;28;20582;-87
2023/02/27 00:06:43;;;;;;;3.07;1.80;;;;;;;-2.39;88.55;98599.41;5031686;28;20212;-87
2023/02/27 00:09:10;;;;;;;1.90;1.70;;;;;;;-2.48;89.18;98596.06;5031823;28;20212;-87
2023/02/27 00:11:38;;;;;;;2.27;1.80;;;;;;;-2.58;89.89;98594.47;5031764;28;20208;-87
2023/02/27 00:14:05;;;;;;;2.13;1.93;;;;;;;-2.66;90.48;98596.28;5031848;28;20236;-87
2023/02/27 00:16:31;;;;;;;3.77;1.87;;;;;;;-2.76;91.03;98599.84;5031638;28;20262;-87
2023/02/27 00:19:00;;;;;;;2.43;1.67;;;;;;;-2.81;92.03;98599.03;5031732;28;20209;-87
2023/02/27 00:21:26;;;;;;;3.50;2.07;;;;;;;-2.77;92.43;98604.13;5031750;28;20212;-87
2023/02/27 00:23:53;;;;;;;2.10;1.70;;;;;;;-2.78;92.48;98598.97;5031529;28;20216;-87
2023/02/27 00:26:19;;;;;;;3.00;1.83;;;;;;;-2.72;92.41;98597.19;5031086;28;20255;-87
2023/02/27 00:28:47;;;;;;;3.20;1.90;;;;;;;-2.65;91.87;98587.63;5031461;28;20212;-87
2023/02/27 00:31:14;;;;;;;2.37;1.93;;;;;;;-2.64;91.87;98586.78;5031598;28;20212;-87
2023/02/27 00:33:40;;;;;;;2.80;1.93;;;;;;;-2.65;91.66;98588.50;5031351;28;20208;-88
2023/02/27 00:36:07;;;;;;;2.00;1.80;;;;;;;-2.70;92.02;98595.44;5056775;22;20232;-81
2023/02/27 00:38:34;;;;;;;3.13;1.80;;;;;;;-2.74;92.71;98586.03;5051659;28;20594;-82
2023/02/27 00:41:01;;;;;;;3.93;2.13;;;;;;;-2.67;92.90;98584.22;5051547;28;20215;-81
2023/02/27 00:43:28;;;;;;;3.50;2.27;;;;;;;-2.84;93.21;98591.28;5051712;28;20212;-82
2023/02/27 00:45:55;;;;;;;2.07;1.60;;;;;;;-2.77;93.66;98590.34;5051313;28;20227;-81
2023/02/27 00:48:22;;;;;;;3.10;2.47;;;;;;;-2.86;93.73;98588.72;5051316;28;20257;-82
2023/02/27 00:50:50;;;;;;;2.73;1.70;;;;;;;-2.87;94.17;98593.91;5051465;28;20208;-82
2023/02/27 00:53:16;;;;;;;3.03;2.03;;;;;;;-2.85;94.31;98593.03;5051413;28;20214;-82
2023/02/27 00:55:43;;;;;;;2.30;1.93;;;;;;;-2.79;94.48;98602.44;5051151;28;20261;-82
2023/02/27 00:58:09;;;;;;;2.13;1.93;;;;;;;-2.80;94.41;98593.84;5051383;28;20211;-82
2023/02/27 01:00:36;;;;;;;3.37;1.60;;;;;;;-2.77;94.09;98587.75;5051904;28;20218;-82
2023/02/27 01:03:04;;;;;;;2.37;2.10;;;;;;;-2.69;94.09;98593.72;5051627;28;20587;-81
2023/02/27 01:05:30;;;;;;;2.27;1.80;;;;;;;-2.67;93.65;98586.81;5051391;28;20231;-83
2023/02/27 01:07:57;;;;;;;1.87;1.50;;;;;;;-2.70;93.78;98589.44;5051054;28;20220;-82
2023/02/27 01:10:23;;;;;;;2.97;2.17;;;;;;;-2.78;94.23;98596.38;5051349;28;20691;-83
2023/02/27 01:12:50;;;;;;;2.57;2.07;;;;;;;-2.81;94.53;98591.25;5051427;28;20692;-84
2023/02/27 01:15:17;;;;;;;1.83;1.73;;;;;;;-2.84;94.52;98596.44;5055218;28;20243;-82
2023/02/27 01:17:44;;;;;;;3.00;2.20;;;;;;;-2.86;95.09;98598.19;5055049;28;20208;-82
2023/02/27 01:20:13;;;;;;;1.97;1.77;;;;;;;-2.85;95.44;98594.72;5055296;28;20214;-82
2023/02/27 01:22:39;;;;;;;4.43;2.10;;;;;;;-2.97;95.57;98594.84;5055272;28;20208;-82
2023/02/27 01:25:07;;;;;;;2.87;2.20;;;;;;;-2.83;95.79;98582.63;5055476;28;20595;-82
2023/02/27 01:27:33;;;;;;;2.20;2.00;;;;;;;-2.76;95.62;98585.16;5055148;28;20200;-82
2023/02/27 01:30:00;;;;;;;3.60;2.03;;;;;;;-2.75;95.38;98580.84;5055178;28;20219;-82
2023/02/27 01:32:26;;;;;;;3.30;2.10;;;;;;;-2.76;95.23;98586.91;5055351;28;20222;-83
2023/02/27 01:34:53;;;;;;;2.30;2.10;;;;;;;-2.79;95.70;98579.16;5054704;28;20710;-82
2023/02/27 01:37:21;;;;;;;2.67;2.07;;;;;;;-2.72;95.46;98580.81;5055283;28;20222;-81
2023/02/27 01:39:47;;;;;;;3.20;2.47;;;;;;;-2.81;95.40;98578.31;5056180;28;20212;-81
2023/02/27 01:42:19;;;;;;;2.50;2.20;;;;;;;-2.79;95.93;98576.56;5055528;28;20215;-82
2023/02/27 01:45:18;;;;;;;2.60;2.07;;;;;;;-2.77;96.07;98577.41;5054651;28;20211;-82
2023/02/27 01:47:50;;;;;;;2.30;1.90;;;;;;;-2.78;95.88;98579.16;5037590;28;20591;-82
2023/02/27 01:50:18;;;;;;;3.00;2.30;;;;;;;-2.83;96.30;98577.47;5054964;28;20215;-81
2023/02/27 01:52:50;;;;;;;3.37;2.10;;;;;;;-2.72;95.65;98575.63;5054518;28;20211;-82
2023/02/27 01:55:17;;;;;;;2.77;2.07;;;;;;;-2.76;95.99;98574.81;5054607;28;20262;-81
2023/02/27 01:57:45;;;;;;;2.90;2.07;;;;;;;-2.79;95.84;98572.28;5054187;28;20210;-82
2023/02/27 02:00:13;;;;;;;3.27;1.93;;;;;;;-2.77;95.93;98575.69;5053833;28;20207;-83
2023/02/27 02:02:46;;;;;;;3.83;2.13;;;;;;;-2.74;96.35;98577.38;5052055;28;20209;-82
2023/02/27 02:05:14;;;;;;;4.47;2.10;;;;;;;-2.76;96.11;98576.56;5054514;28;20233;-82
2023/02/27 02:07:44;;;;;;;3.63;1.87;;;;;;;-2.76;96.19;98582.56;5054275;28;20210;-82
2023/02/27 02:10:14;;;;;;;3.10;2.60;;;;;;;-2.72;96.16;98567.88;5054381;28;20211;-82
2023/02/27 02:12:42;;;;;;;2.30;2.10;;;;;;;-2.73;96.05;98564.44;5054226;28;20219;-82
2023/02/27 02:15:09;;;;;;;4.10;2.30;;;;;;;-2.66;95.80;98575.56;5054316;28;20246;-82
2023/02/27 02:17:44;;;;;;;4.03;2.50;;;;;;;-2.72;95.96;98573.91;5054255;28;20216;-82
2023/02/27 02:20:57;;;;;;;3.13;2.20;;;;;;;-2.70;95.99;98568.75;5054112;28;20472;-82
2023/02/27 02:23:58;;;;;;;5.10;2.27;;;;;;;-2.70;95.74;98572.16;5022250;28;20216;-81
2023/02/27 02:26:51;;;;;;;2.57;1.90;;;;;;;-2.68;95.64;98572.16;5053784;28;20234;-82
2023/02/27 02:29:51;;;;;;;4.43;2.20;;;;;;;-2.68;95.97;98572.16;5053905;28;20214;-81
2023/02/27 02:32:51;;;;;;;2.27;1.83;;;;;;;-2.72;95.76;98573.03;5054035;28;20234;-82
2023/02/27 02:36:00;;;;;;;2.80;2.60;;;;;;;-2.81;96.34;98566.22;5028021;28;20236;-81
2023/02/27 02:39:09;;;;;;;3.30;2.10;;;;;;;-2.84;96.13;98581.78;5038083;28;20215;-82
2023/02/27 02:41:50;;;;;;;3.53;2.77;;;;;;;-2.77;96.23;98574.81;4992148;28;20224;-83
2023/02/27 02:44:24;;;;;;;4.33;2.17;;;;;;;-2.76;96.06;98579.16;4992074;28;20221;-82
2023/02/27 02:47:01;;;;;;;3.67;2.30;;;;;;;-2.76;95.91;98584.31;5031379;28;20230;-81
2023/02/27 02:49:34;;;;;;;4.83;2.57;;;;;;;-2.79;96.66;98586.91;5053560;28;20215;-81
2023/02/27 02:52:06;;;;;;;2.40;1.90;;;;;;;-2.91;96.87;98584.44;5053589;28;20211;-81
2023/02/27 02:54:40;;;;;;;3.47;2.27;;;;;;;-2.97;97.40;98581.91;5053882;28;20240;-82
2023/02/27 02:57:12;;;;;;;4.30;2.33;;;;;;;-2.96;97.61;98586.22;5053340;28;20562;-82
2023/02/27 02:59:44;;;;;;;4.23;2.30;;;;;;;-2.97;98.28;98594.84;5053359;28;20208;-81
2023/02/27 03:02:14;;;;;;;4.00;2.30;;;;;;;-3.00;98.15;98589.72;5053457;28;20220;-82
2023/02/27 03:04:45;;;;;;;2.60;2.40;;;;;;;-3.09;98.42;98594.94;5053218;28;20215;-81
2023/02/27 03:07:17;;;;;;;2.13;1.93;;;;;;;-3.15;99.07;98600.16;5053251;28;20211;-81
2023/02/27 03:09:48;;;;;;;2.93;2.20;;;;;;;-3.16;99.19;98594.16;5053301;28;20577;-83
2023/02/27 03:12:19;;;;;;;3.90;2.30;;;;;;;-3.14;99.98;98601.88;5053251;28;20211;-82
2023/02/27 03:14:50;;;;;;;2.90;2.37;;;;;;;-3.19;100.00;98601.09;5053191;28;20255;-82
2023/02/27 03:17:24;;;;;;;3.77;2.20;;;;;;;-3.19;99.85;98598.50;5052738;28;20218;-82
2023/02/27 03:19:56;;;;;;;2.33;2.10;;;;;;;-3.20;100.00;98596.75;5052913;28;20666;-82
2023/02/27 03:22:29;;;;;;;2.20;2.00;;;;;;;-3.19;100.00;98599.34;5053147;28;20700;-82
2023/02/27 03:25:00;;;;;;;3.03;2.10;;;;;;;-3.08;100.00;98604.41;5052822;28;20207;-82
2023/02/27 03:27:32;;;;;;;2.90;2.13;;;;;;;-3.05;100.00;98601.81;5052526;28;20591;-82
2023/02/27 03:30:05;;;;;;;3.37;2.27;;;;;;;-2.96;100.00;98601.72;5052888;28;20189;-81
2023/02/27 03:32:41;;;;;;;2.47;2.27;;;;;;;-3.07;100.00;98606.16;5052931;28;20219;-82
2023/02/27 03:35:10;;;;;;;3.13;2.47;;;;;;;-3.03;100.00;98602.66;5052682;28;20263;-81
2023/02/27 03:37:44;;;;;;;2.90;2.30;;;;;;;-3.05;99.93;98601.81;5051903;28;20222;-82
2023/02/27 03:40:23;;;;;;;3.20;2.43;;;;;;;-3.06;100.00;98606.13;5052521;28;20212;-83
2023/02/27 03:42:57;;;;;;;3.40;2.30;;;;;;;-3.04;99.73;98614.75;5052709;28;20567;-82
2023/02/27 03:45:33;;;;;;;2.93;2.30;;;;;;;-3.10;99.98;98625.13;5052522;28;20251;-82
2023/02/27 03:48:00;;;;;;;3.57;2.00;;;;;;;-3.17;100.00;98613.09;5052134;28;20215;-83
2023/02/27 03:50:27;;;;;;;2.43;2.23;;;;;;;-3.13;100.00;98614.78;5052377;28;20211;-82
2023/02/27 03:52:53;;;;;;;2.10;1.83;;;;;;;-3.11;100.00;98619.97;5052203;28;20211;-82
2023/02/27 03:55:25;;;;;;;3.83;2.40;;;;;;;-3.12;100.00;98626.00;5052140;28;20235;-82
2023/02/27 03:57:52;;;;;;;4.57;2.43;;;;;;;-3.17;100.00;98620.00;5051945;28;20204;-82
2023/02/27 04:00:20;;;;;;;3.70;2.40;;;;;;;-3.21;100.00;98623.47;5052510;28;20207;-83
2023/02/27 04:02:50;;;;;;;3.20;2.90;;;;;;;-3.18;100.00;98631.22;5052220;28;20603;-82
2023/02/27 04:05:17;;;;;;;3.70;2.70;;;;;;;-3.19;100.00;98629.50;5051939;28;20234;-83
2023/02/27 04:07:53;;;;;;;3.37;2.47;;;;;;;-3.24;100.00;98628.69;5052097;28;20219;-82
2023/02/27 04:10:34;;;;;;;2.67;2.13;;;;;;;-3.21;100.00;98626.06;5052091;28;20208;-83
2023/02/27 04:13:22;;;;;;;2.57;2.37;;;;;;;-3.20;100.00;98632.94;5052276;28;20211;-82
2023/02/27 04:16:10;;;;;;;5.37;2.70;;;;;;;-3.18;100.00;98634.66;5051741;28;20609;-82
2023/02/27 04:18:55;;;;;;;3.17;2.30;;;;;;;-3.18;100.00;98626.06;5051954;28;20238;-82
2023/02/27 04:21:30;;;;;;;3.70;2.17;;;;;;;-3.17;100.00;98633.78;5051939;28;20215;-82
2023/02/27 04:24:05;;;;;;;3.70;2.57;;;;;;;-3.20;100.00;98628.66;5051897;28;20207;-82
2023/02/27 04:26:39;;;;;;;3.10;2.80;;;;;;;-3.29;100.00;98627.84;5051833;28;20237;-82
2023/02/27 04:29:11;;;;;;;3.87;2.67;;;;;;;-3.21;100.00;98631.22;5051736;28;20653;-82
2023/02/27 04:31:45;;;;;;;3.63;2.33;;;;;;;-3.20;100.00;98627.78;5051764;28;20223;-82
2023/02/27 04:34:19;;;;;;;3.13;2.40;;;;;;;-3.11;100.00;98632.88;5051717;28;20222;-82
2023/02/27 04:36:50;;;;;;;4.03;2.80;;;;;;;-3.17;100.00;98632.94;5051310;28;20243;-83
2023/02/27 04:39:22;;;;;;;3.07;2.77;;;;;;;-3.20;100.00;98630.34;5051802;28;20296;-81
2023/02/27 04:41:54;;;;;;;4.57;3.10;;;;;;;-3.18;100.00;98631.22;5051785;28;20557;-81
2023/02/27 04:44:24;;;;;;;3.03;2.50;;;;;;;-3.10;100.00;98632.00;5051731;28;20211;-82
2023/02/27 04:46:53;;;;;;;3.00;2.50;;;;;;;-3.12;100.00;98631.19;5051205;28;20227;-83
2023/02/27 04:49:24;;;;;;;4.10;2.50;;;;;;;-3.06;100.00;98631.13;5051599;28;20231;-81
2023/02/27 04:51:57;;;;;;;3.17;2.37;;;;;;;-3.06;100.00;98631.13;5051697;28;20204;-82
2023/02/27 04:54:30;;;;;;;4.43;2.73;;;;;;;-3.19;100.00;98629.50;5052017;28;20203;-82
2023/02/27 04:57:02;;;;;;;4.13;2.50;;;;;;;-3.12;100.00;98632.03;5052548;28;20262;-82
2023/02/27 04:59:33;;;;;;;4.73;3.07;;;;;;;-3.11;100.00;98632.88;5052592;28;20211;-82
2023/02/27 05:02:03;;;;;;;3.67;2.87;;;;;;;-3.19;100.00;98634.69;5051732;28;20222;-81
2023/02/27 05:04:34;;;;;;;3.73;2.90;;;;;;;-3.20;100.00;98630.34;5051302;28;20215;-81
2023/02/27 05:07:02;;;;;;;3.30;2.57;;;;;;;-3.24;100.00;98637.28;5051249;28;20210;-82
2023/02/27 05:09:36;;;;;;;4.97;2.90;;;;;;;-3.32;100.00;98643.38;5051235;28;20212;-82
2023/02/27 05:12:15;;;;;;;4.93;2.90;;;;;;;-3.38;100.00;98643.41;5051854;28;20203;-81
2023/02/27 05:14:45;;;;;;;4.63;2.67;;;;;;;-3.41;100.00;98654.66;5051418;28;20214;-82
2023/02/27 05:17:17;;;;;;;3.07;2.53;;;;;;;-3.40;100.00;98650.31;5050908;28;20231;-83
2023/02/27 05:19:45;;;;;;;4.17;2.70;;;;;;;-3.39;100.00;98652.91;5051323;28;20207;-82
2023/02/27 05:22:22;;;;;;;3.17;2.83;;;;;;;-3.46;100.00;98655.53;5051231;28;20218;-82
2023/02/27 05:24:57;;;;;;;4.23;2.67;;;;;;;-3.49;100.00;98656.41;5051313;28;20215;-82
2023/02/27 05:27:33;;;;;;;5.60;2.77;;;;;;;-3.47;100.00;98658.97;5051132;28;20221;-81
2023/02/27 05:30:05;;;;;;;4.13;2.50;;;;;;;-3.40;100.00;98660.66;5051170;28;20237;-82
2023/02/27 05:32:37;;;;;;;6.03;2.90;;;;;;;-3.39;100.00;98667.53;5051018;28;20211;-82
2023/02/27 05:35:19;;;;;;;3.40;2.87;;;;;;;-3.37;100.00;98673.56;5050883;28;20238;-82
2023/02/27 05:37:49;;;;;;;5.17;2.73;;;;;;;-3.42;100.00;98677.91;5050902;28;20211;-81
2023/02/27 05:40:21;;;;;;;3.17;2.63;;;;;;;-3.49;100.00;98673.63;5052510;28;20214;-81
2023/02/27 05:42:54;;;;;;;6.13;3.07;;;;;;;-3.56;100.00;98664.22;5052009;28;20204;-82
2023/02/27 05:45:25;;;;;;;4.40;2.90;;;;;;;-3.71;100.00;98677.19;5052595;28;20239;-82
2023/02/27 05:47:58;;;;;;;3.07;2.60;;;;;;;-3.71;100.00;98679.78;5051512;28;20208;-82
2023/02/27 05:50:29;;;;;;;4.00;2.90;;;;;;;-3.77;100.00;98682.38;5052319;28;20215;-81
2023/02/27 05:52:59;;;;;;;6.30;2.93;;;;;;;-3.80;100.00;98680.66;5051063;28;20244;-82
2023/02/27 05:55:29;;;;;;;3.67;2.90;;;;;;;-3.85;100.00;98686.72;5051011;28;20227;-82
2023/02/27 05:58:04;;;;;;;4.17;2.97;;;;;;;-3.90;100.00;98680.72;5050415;28;20207;-82
2023/02/27 06:00:34;;;;;;;4.50;3.00;;;;;;;-3.88;100.00;98676.41;5053295;28;20218;-81
2023/02/27 06:03:01;;;;;;;7.70;2.90;;;;;;;-3.97;100.00;98681.63;5054399;28;20675;-82
2023/02/27 06:05:28;;;;;;;4.87;2.73;;;;;;;-3.92;100.00;98690.19;5054317;28;20246;-82
2023/02/27 06:07:54;;;;;;;3.20;2.90;;;;;;;-4.00;100.00;98682.47;5054127;28;20217;-83
2023/02/27 06:10:21;;;;;;;3.57;3.13;;;;;;;-3.91;100.00;98679.00;5054198;28;20223;-82
2023/02/27 06:12:48;;;;;;;4.93;3.47;;;;;;;-3.96;100.00;98684.19;5054487;28;20211;-82
2023/02/27 06:15:17;;;;;;;4.17;2.90;;;;;;;-4.01;100.00;98685.06;5054350;28;20317;-83
2023/02/27 06:17:44;;;;;;;4.97;3.07;;;;;;;-3.98;100.00;98690.22;5053902;28;20263;-82
2023/02/27 06:20:12;;;;;;;4.60;2.73;;;;;;;-3.95;100.00;98685.03;5054502;28;20211;-82
2023/02/27 06:22:39;;;;;;;3.37;3.00;;;;;;;-3.96;100.00;98689.34;5053985;28;20214;-82
2023/02/27 06:25:06;;;;;;;4.10;3.33;;;;;;;-3.95;100.00;98690.19;5053926;28;20243;-82
2023/02/27 06:27:32;;;;;;;6.17;2.80;;;;;;;-3.87;100.00;98693.59;5053919;28;20211;-81
2023/02/27 06:29:59;;;;;;;5.90;3.00;;;;;;;-3.73;100.00;98697.84;5054154;28;20583;-82
2023/02/27 06:32:27;;;;;;;5.10;3.10;;;;;;;-3.66;100.00;98696.09;5053984;28;20218;-82
2023/02/27 06:34:54;;;;;;;5.10;3.37;;;;;;;-3.66;100.00;98704.69;5053949;28;20211;-81
2023/02/27 06:37:21;;;;;;;6.63;3.20;;;;;;;-3.55;100.00;98702.94;5085457;22;20592;-77
2023/02/27 06:39:47;;;;;;;6.03;3.40;;;;;;;-3.47;100.00;98700.31;5073843;28;20214;-77
2023/02/27 06:42:14;;;;;;;3.67;3.27;;;;;;;-3.48;100.00;98699.44;5073740;28;20734;-77
2023/02/27 06:44:40;;;;;;;5.13;2.90;;;;;;;-3.40;100.00;98702.00;5074018;28;20240;-77
2023/02/27 06:47:07;;;;;;;5.93;3.53;;;;;;;-3.27;100.00;98698.47;5073545;28;20234;-77
2023/02/27 06:49:35;;;;;;;5.13;3.37;;;;;;;-3.17;100.00;98700.13;5073721;28;20217;-76
2023/02/27 06:52:01;;;;;;;4.80;3.40;;;;;;;-3.14;100.00;98706.16;5074000;28;20215;-76
2023/02/27 06:54:28;;;;;;;4.93;3.43;;;;;;;-3.06;100.00;98695.75;5073676;28;20210;-78
2023/02/27 06:56:55;;;;;;;4.20;3.00;;;;;;;-2.95;100.00;98696.56;5072971;28;20239;-77
2023/02/27 06:59:21;;;;;;;3.53;3.23;;;;;;;-2.91;100.00;98699.09;5073551;28;20220;-80
2023/02/27 07:01:48;;;;;;;5.57;3.07;;;;;;;-2.83;100.00;98706.78;5073430;28;20692;-84
2023/02/27 07:04:15;;;;;;;4.93;3.10;;;;;;;-2.78;100.00;98699.84;5073298;28;20207;-82
2023/02/27 07:06:43;;;;;;;5.20;3.03;;;;;;;-2.70;100.00;98698.06;5072932;28;20233;-78
2023/02/27 07:09:10;;;;;;;4.37;3.50;;;;;;;-2.62;100.00;98706.63;5073268;28;20246;-78
2023/02/27 07:11:36;;;;;;;4.10;3.33;;;;;;;-2.54;100.00;98703.09;5072425;28;20218;-77
2023/02/27 07:14:03;;;;;;;7.33;3.30;;;;;;;-2.44;100.00;98696.13;5073244;28;20203;-78
2023/02/27 07:16:29;;;;;;;4.53;3.17;;;;;;;-2.38;100.00;98707.25;5072741;28;20797;-78
2023/02/27 07:18:56;;;;;;;4.23;3.27;;;;;;;-2.28;100.00;98705.47;5073008;28;20206;-78
2023/02/27 07:21:22;;;;;;;4.20;3.10;;;;;;;-2.15;99.48;98705.28;5073251;28;20218;-78
2023/02/27 07:23:50;;;;;;;4.60;3.20;;;;;;;-2.06;99.24;98714.72;5073203;28;20207;-75
2023/02/27 07:26:17;;;;;;;4.53;3.27;;;;;;;-2.02;98.68;98716.41;5072689;28;20605;-76
2023/02/27 07:28:44;;;;;;;3.43;2.80;;;;;;;-1.97;97.30;98712.88;5073353;28;20217;-78
2023/02/27 07:31:10;;;;;;;4.23;3.03;;;;;;;-1.90;95.77;98706.75;5072980;28;20218;-77
2023/02/27 07:33:37;;;;;;;5.40;2.90;;;;;;;-1.82;95.08;98709.25;5072692;28;20222;-78
2023/02/27 07:36:03;;;;;;;3.87;2.73;;;;;;;-1.79;95.02;98698.88;5072775;28;20239;-78
2023/02/27 07:38:31;;;;;;;4.60;2.90;;;;;;;-1.72;94.25;98703.09;5072811;28;20219;-78
2023/02/27 07:40:59;;;;;;;5.60;3.53;;;;;;;-1.65;93.87;98702.16;5076857;28;20215;-78
2023/02/27 07:43:25;;;;;;;3.27;2.87;;;;;;;-1.57;92.76;98708.97;5079570;28;20674;-78
2023/02/27 07:45:52;;;;;;;5.20;3.40;;;;;;;-1.50;92.60;98696.75;5080339;28;20605;-78
2023/02/27 07:48:19;;;;;;;5.53;3.10;;;;;;;-1.43;91.74;98693.22;5079234;28;20208;-79
2023/02/27 07:50:45;;;;;;;3.20;2.90;;;;;;;-1.33;91.14;98694.81;5074905;28;20218;-78
2023/02/27 07:53:12;;;;;;;4.67;2.90;;;;;;;-1.28;91.19;98704.25;5073487;28;20270;-78
2023/02/27 07:55:39;;;;;;;4.70;3.10;;;;;;;-1.19;90.09;98698.06;5073486;28;20227;-79
2023/02/27 07:58:07;;;;;;;3.93;3.03;;;;;;;-1.13;90.81;98697.97;5072937;28;20231;-79
2023/02/27 08:00:33;;;;;;;4.73;2.83;;;;;;;-1.02;88.96;98685.72;5072680;28;20203;-79
2023/02/27 08:03:00;;;;;;;4.57;3.33;;;;;;;-0.94;87.39;98683.84;5073169;28;20208;-79
2023/02/27 08:05:26;;;;;;;4.17;2.90;;;;;;;-0.85;87.37;98688.91;5073031;28;20705;-79
2023/02/27 08:07:53;;;;;;;3.80;2.80;;;;;;;-0.78;86.25;98690.53;5072868;28;20203;-79
2023/02/27 08:10:19;;;;;;;3.23;2.80;;;;;;;-0.73;86.53;98691.31;5072914;28;20545;-79
2023/02/27 08:12:46;;;;;;;4.60;3.23;;;;;;;-0.60;85.68;98691.09;5072989;28;20213;-79
2023/02/27 08:15:14;;;;;;;2.90;2.50;;;;;;;-0.51;84.84;98684.91;5072535;28;20579;-79
2023/02/27 08:17:40;;;;;;;4.37;2.63;;;;;;;-0.44;83.26;98689.13;5072574;28;20263;-79
2023/02/27 08:20:10;;;;;;;5.50;2.53;;;;;;;-0.34;83.45;98682.84;5072662;28;20693;-79
2023/02/27 08:22:36;;;;;;;3.77;3.13;;;;;;;-0.29;82.90;98681.03;5071644;28;20675;-79
2023/02/27 08:25:04;;;;;;;4.57;3.70;;;;;;;-0.25;81.11;98683.53;5072355;28;20209;-79
2023/02/27 08:27:31;;;;;;;4.90;2.80;;;;;;;-0.18;80.19;98671.31;5072075;28;20203;-79
2023/02/27 08:29:57;;;;;;;5.27;2.63;;;;;;;-0.10;79.61;98671.13;5072316;28;20689;-79
2023/02/27 08:32:26;;;;;;;5.00;2.73;;;;;;;-0.04;79.61;98678.81;5072128;28;20213;-78
2023/02/27 08:34:52;;;;;;;3.53;2.57;;;;;;;0.09;80.37;98682.91;5072215;28;20244;-77
2023/02/27 08:37:19;;;;;;;3.93;2.80;;;;;;;0.12;78.00;98676.78;5071547;28;20264;-77
2023/02/27 08:39:45;;;;;;;4.30;2.67;;;;;;;0.20;77.90;98675.75;5072168;28;20211;-76
2023/02/27 08:42:12;;;;;;;3.17;2.87;;;;;;;0.27;77.19;98674.75;5071702;28;20219;-77
2023/02/27 08:44:38;;;;;;;3.57;3.00;;;;;;;0.35;76.65;98677.19;5072388;28;20562;-77
2023/02/27 08:47:05;;;;;;;4.43;3.10;;;;;;;0.44;76.68;98683.06;5069094;28;20426;-80
2023/02/27 08:49:33;;;;;;;3.53;2.77;;;;;;;0.58;75.43;98682.78;5069920;28;20216;-77
2023/02/27 08:52:00;;;;;;;3.47;2.67;;;;;;;0.61;76.44;98691.38;5070702;28;20219;-78
2023/02/27 08:54:26;;;;;;;3.80;2.70;;;;;;;0.67;75.00;98679.97;5070734;28;20235;-78
2023/02/27 08:56:53;;;;;;;2.90;2.60;;;;;;;0.76;73.14;98680.66;5063223;28;20231;-78
2023/02/27 08:59:19;;;;;;;3.10;2.43;;;;;;;0.76;71.92;98667.66;5067644;28;20554;-76
2023/02/27 09:01:46;;;;;;;4.80;2.43;;;;;;;0.81;72.21;98678.78;5071994;28;20210;-76
2023/02/27 09:04:13;;;;;;;5.10;3.13;;;;;;;0.89;71.79;98670.81;5071820;28;20204;-77
2023/02/27 09:06:40;;;;;;;5.90;2.80;;;;;;;1.00;71.87;98679.22;5071159;28;20221;-77
2023/02/27 09:09:07;;;;;;;3.83;2.93;;;;;;;1.04;71.40;98676.53;5071379;28;20219;-76
2023/02/27 09:11:34;;;;;;;2.90;2.50;;;;;;;1.08;69.12;98672.97;5071321;28;20586;-74
2023/02/27 09:14:00;;;;;;;5.90;3.33;;;;;;;1.10;69.18;98673.78;5071418;28;20216;-75
2023/02/27 09:16:27;;;;;;;3.60;2.70;;;;;;;1.19;70.28;98676.19;5071099;28;20234;-76
2023/02/27 09:18:53;;;;;;;3.10;2.77;;;;;;;1.24;69.34;98682.09;5071274;28;20210;-76
2023/02/27 09:21:21;;;;;;;3.63;2.30;;;;;;;1.37;68.84;98659.25;5071246;28;20212;-77
2023/02/27 09:23:49;;;;;;;6.13;2.90;;;;;;;1.44;68.21;98666.00;5071378;28;20270;-76
2023/02/27 09:26:16;;;;;;;3.40;2.57;;;;;;;1.48;66.82;98663.28;5070547;28;20839;-76
2023/02/27 09:28:43;;;;;;;3.03;2.60;;;;;;;1.52;66.30;98667.53;5071038;28;20202;-76
2023/02/27 09:31:10;;;;;;;3.50;2.60;;;;;;;1.54;67.09;98662.28;5070749;28;20212;-74
2023/02/27 09:33:38;;;;;;;3.77;3.00;;;;;;;1.70;68.32;98685.31;5071245;28;20205;-80
2023/02/27 09:36:05;;;;;;;3.07;2.57;;;;;;;1.72;64.84;98660.06;5074445;28;20227;-75
2023/02/27 09:38:31;;;;;;;2.53;2.33;;;;;;;1.74;65.29;98652.22;5074849;28;20236;-76
2023/02/27 09:41:00;;;;;;;3.03;2.37;;;;;;;1.80;65.36;98655.53;5075222;28;20214;-76
2023/02/27 09:43:33;;;;;;;2.60;2.37;;;;;;;1.82;63.46;98648.50;5075308;28;20211;-78
2023/02/27 09:46:02;;;;;;;3.57;2.57;;;;;;;1.87;65.22;98662.28;5075047;28;20241;-78
2023/02/27 09:48:32;;;;;;;4.07;2.63;;;;;;;1.96;64.00;98656.81;5074950;28;20208;-78
2023/02/27 09:50:59;;;;;;;2.87;2.40;;;;;;;2.09;64.14;98665.16;5075193;28;20217;-78
2023/02/27 09:53:30;;;;;;;2.60;2.00;;;;;;;2.24;63.47;98652.56;5075020;28;20206;-78
2023/02/27 09:56:05;;;;;;;4.00;2.37;;;;;;;2.32;62.74;98649.75;5074890;28;20238;-78
2023/02/27 09:58:42;;;;;;;2.70;2.20;;;;;;;2.38;62.39;98647.78;5074469;28;20238;-78
2023/02/27 10:01:16;;;;;;;2.80;2.50;;;;;;;2.33;61.95;98647.06;5073781;28;20211;-78
2023/02/27 10:04:18;;;;;;;2.57;2.03;;;;;;;2.46;62.60;98661.47;5074754;28;20219;-79
2023/02/27 10:06:49;;;;;;;3.17;2.37;;;;;;;2.54;60.78;98651.69;5042448;28;20227;-78
2023/02/27 10:09:28;;;;;;;2.97;2.20;;;;;;;2.57;60.28;98643.75;5074444;28;20224;-78
2023/02/27 10:12:11;;;;;;;2.77;2.27;;;;;;;2.59;60.42;98643.72;5073694;28;20213;-78
2023/02/27 10:14:43;;;;;;;4.80;2.30;;;;;;;2.67;60.05;98642.59;5074552;28;20214;-84
2023/02/27 10:17:17;;;;;;;2.43;2.00;;;;;;;2.72;59.94;98651.13;5073939;28;20275;-78
2023/02/27 10:19:47;;;;;;;2.17;1.97;;;;;;;2.75;58.95;98640.59;5074484;28;20210;-78
2023/02/27 10:22:21;;;;;;;2.73;1.97;;;;;;;2.88;60.08;98657.59;5074277;28;20212;-78
2023/02/27 10:24:52;;;;;;;4.40;2.53;;;;;;;2.97;59.20;98646.88;5074570;28;20223;-77
2023/02/27 10:27:22;;;;;;;3.57;2.10;;;;;;;2.99;57.21;98634.63;5074006;28;20230;-79
2023/02/27 10:29:49;;;;;;;2.37;1.90;;;;;;;3.04;57.49;98635.34;5074029;28;20205;-78
2023/02/27 10:32:20;;;;;;;2.10;1.90;;;;;;;2.93;56.83;98640.03;5074168;28;20275;-79
2023/02/27 10:34:52;;;;;;;3.07;2.13;;;;;;;2.94;57.15;98635.69;5074146;28;20215;-72
2023/02/27 10:37:22;;;;;;;2.30;2.10;;;;;;;3.00;57.27;98641.53;5073681;28;20240;-78
2023/02/27 10:39:53;;;;;;;2.43;1.93;;;;;;;3.06;57.19;98645.75;5074385;28;20660;-78
2023/02/27 10:42:23;;;;;;;4.23;2.10;;;;;;;3.18;57.45;98651.41;5074486;28;20583;-81
2023/02/27 10:44:52;;;;;;;2.50;2.30;;;;;;;3.28;56.60;98642.41;5073968;28;20204;-79
2023/02/27 10:47:21;;;;;;;3.70;2.27;;;;;;;3.36;56.42;98639.53;5073201;28;20224;-80
2023/02/27 10:49:48;;;;;;;3.83;2.00;;;;;;;3.43;56.33;98639.25;5074566;28;20207;-81
2023/02/27 10:52:16;;;;;;;2.43;1.90;;;;;;;3.46;55.18;98630.47;5074573;28;20207;-79
2023/02/27 10:54:43;;;;;;;2.20;2.00;;;;;;;3.32;53.88;98610.06;5074534;28;20211;-80
2023/02/27 10:57:26;;;;;;;3.30;2.00;;;;;;;3.37;55.06;98626.41;5081024;28;20231;-80
2023/02/27 10:59:55;;;;;;;2.30;1.90;;;;;;;3.24;53.41;98604.19;5084025;28;20207;-80
2023/02/27 11:02:25;;;;;;;4.23;2.20;;;;;;;3.32;55.61;98623.13;5076595;28;20207;-79
2023/02/27 11:04:53;;;;;;;2.20;2.00;;;;;;;3.48;54.25;98621.69;5074625;28;20204;-78
2023/02/27 11:07:29;;;;;;;6.47;2.07;;;;;;;3.61;55.65;98627.38;5073662;28;20381;-80
2023/02/27 11:10:16;;;;;;;3.67;1.90;;;;;;;3.67;55.17;98624.53;5074180;28;20212;-80
2023/02/27 11:12:59;;;;;;;3.40;2.27;;;;;;;3.41;54.03;98612.34;5074841;28;20211;-82
2023/02/27 11:15:27;;;;;;;2.50;2.10;;;;;;;3.24;53.33;98598.97;5074053;28;20571;-81
2023/02/27 11:17:54;;;;;;;2.20;1.87;;;;;;;3.22;53.37;98590.34;5073222;28;20237;-81
2023/02/27 11:20:35;;;;;;;2.67;1.70;;;;;;;3.22;53.73;98602.53;5073520;28;20214;-80
2023/02/27 11:23:04;;;;;;;2.37;1.87;;;;;;;3.26;55.09;98612.88;5074499;28;20210;-81
2023/02/27 11:25:30;;;;;;;3.60;1.93;;;;;;;3.45;54.53;98616.56;5074000;28;20257;-80
2023/02/27 11:28:13;;;;;;;5.87;2.00;;;;;;;3.70;53.94;98612.22;5072993;28;20299;-81
2023/02/27 11:30:43;;;;;;;3.63;2.03;;;;;;;3.64;51.63;98570.63;5073077;28;20215;-83
2023/02/27 11:33:18;;;;;;;3.10;1.90;;;;;;;3.42;52.86;98585.31;5075178;28;20207;-81
2023/02/27 11:35:51;;;;;;;2.10;1.50;;;;;;;3.18;52.40;98588.72;5074165;28;20232;-82
2023/02/27 11:38:22;;;;;;;2.60;1.47;;;;;;;2.90;53.27;98585.31;5072447;28;20650;-81
2023/02/27 11:40:51;;;;;;;2.50;2.10;;;;;;;2.81;54.00;98598.66;5072589;28;20559;-82
2023/02/27 11:43:22;;;;;;;1.90;1.70;;;;;;;2.80;54.42;98594.34;5072483;28;20208;-78
2023/02/27 11:45:55;;;;;;;3.65;2.00;;;;;;;2.99;54.62;98597.22;5070157;28;20442;-79
2023/02/27 11:48:25;;;;;;;3.43;1.77;;;;;;;3.11;53.90;98578.56;5070950;28;20673;-77
2023/02/27 11:51:08;;;;;;;2.93;2.10;;;;;;;3.17;52.71;98581.81;5071397;28;20206;-80